Time;durP1;ratioP1;P1;durP2;ratioP2;P2;SDS_P1;SDS_P2;PMS_P1;PMS_P2;Temp;Humidity;BMP_temperature;BMP_pressure;BME280_temperature;BME280_humidity;BME280_pressure;Samples;Min_cycle;Max_cycle;Signal;HPM_P1;HPM_P2
2022/05/12 00:02:09;;;;;;;6.00;1.38;;;11.60;99.90;;;;;;5006364;28;20125;-79
2022/05/12 00:04:36;;;;;;;7.88;1.25;;;11.70;99.90;;;;;;5006172;28;20430;-79
2022/05/12 00:07:02;;;;;;;6.22;1.40;;;11.60;99.90;;;;;;5006809;28;20045;-79
2022/05/12 00:09:28;;;;;;;7.80;1.50;;;11.50;99.90;;;;;;5007929;28;20041;-79
2022/05/12 00:11:54;;;;;;;13.10;1.52;;;11.90;99.90;;;;;;5006408;28;20515;-79
2022/05/12 00:14:20;;;;;;;7.75;1.77;;;11.40;99.90;;;;;;5038854;28;20045;-79
2022/05/12 00:16:46;;;;;;;5.18;1.27;;;11.40;99.90;;;;;;5005679;28;20065;-79
2022/05/12 00:19:12;;;;;;;4.75;1.25;;;11.50;99.90;;;;;;5038286;28;20486;-79
2022/05/12 00:21:38;;;;;;;6.55;1.42;;;11.40;99.90;;;;;;5039294;28;20077;-79
2022/05/12 00:24:05;;;;;;;9.63;1.65;;;11.20;99.90;;;;;;5005722;28;20061;-79
2022/05/12 00:26:35;;;;;;;5.68;1.10;;;11.20;99.90;;;;;;5038235;28;20500;-79
2022/05/12 00:29:05;;;;;;;4.32;1.20;;;11.10;99.90;;;;;;5038721;28;20481;-79
2022/05/12 00:31:32;;;;;;;10.70;1.38;;;11.10;99.90;;;;;;5038318;28;20050;-79
2022/05/12 00:33:58;;;;;;;9.10;1.52;;;11.60;99.90;;;;;;5005548;28;20050;-79
2022/05/12 00:36:23;;;;;;;5.13;1.10;;;11.50;99.90;;;;;;5038758;28;20501;-79
2022/05/12 00:38:49;;;;;;;3.75;0.82;;;11.00;99.90;;;;;;5007196;28;20038;-79
2022/05/12 00:41:15;;;;;;;4.72;0.68;;;11.10;99.90;;;;;;5037885;28;20405;-79
2022/05/12 00:43:48;;;;;;;7.10;1.00;;;10.90;99.90;;;;;;5039015;28;20054;-79
2022/05/12 00:46:19;;;;;;;4.35;0.70;;;10.90;99.90;;;;;;5006065;28;20042;-79
2022/05/12 00:48:46;;;;;;;10.63;1.00;;;10.80;99.90;;;;;;5037965;28;20785;-79
2022/05/12 00:51:17;;;;;;;4.50;0.90;;;11.30;99.90;;;;;;5038476;28;20045;-79
2022/05/12 00:53:45;;;;;;;4.50;0.85;;;11.00;99.90;;;;;;5007632;28;20053;-79
2022/05/12 00:56:14;;;;;;;6.05;1.13;;;10.70;99.90;;;;;;5037671;28;20516;-79
2022/05/12 00:58:40;;;;;;;5.65;0.90;;;10.90;99.90;;;;;;5022262;28;20184;-79
2022/05/12 01:01:08;;;;;;;3.55;0.88;;;11.10;99.90;;;;;;5036436;28;20137;-79
2022/05/12 01:03:37;;;;;;;4.25;1.02;;;10.60;99.90;;;;;;5039067;28;20041;-80
2022/05/12 01:06:03;;;;;;;6.60;1.63;;;11.20;99.90;;;;;;5005142;28;20513;-79
2022/05/12 01:08:30;;;;;;;4.93;0.98;;;10.50;99.90;;;;;;5038471;28;20100;-80
2022/05/12 01:10:59;;;;;;;5.97;1.13;;;10.90;99.90;;;;;;5037923;28;20065;-79
2022/05/12 01:13:25;;;;;;;7.03;1.10;;;10.50;99.90;;;;;;5039234;28;20042;-79
2022/05/12 01:15:56;;;;;;;6.90;1.48;;;10.50;99.90;;;;;;5036752;28;20061;-79
2022/05/12 01:18:23;;;;;;;3.78;0.75;;;10.40;99.90;;;;;;5039200;28;20383;-79
2022/05/12 01:20:50;;;;;;;5.60;1.13;;;10.40;99.90;;;;;;5005213;28;20061;-79
2022/05/12 01:23:29;;;;;;;7.18;1.00;;;10.50;99.90;;;;;;5038140;28;20049;-79
2022/05/12 01:25:58;;;;;;;6.15;0.90;;;10.40;99.90;;;;;;5037596;28;20057;-80
2022/05/12 01:28:25;;;;;;;6.93;1.55;;;10.30;99.90;;;;;;5010160;28;20042;-80
2022/05/12 01:30:50;;;;;;;5.15;1.15;;;10.20;99.90;;;;;;5008111;28;20115;-79
2022/05/12 01:33:16;;;;;;;8.73;1.23;;;10.20;99.90;;;;;;5042258;28;20143;-79
2022/05/12 01:35:42;;;;;;;5.05;1.00;;;10.20;99.90;;;;;;5008248;28;20057;-79
2022/05/12 01:38:08;;;;;;;6.90;1.17;;;10.10;99.90;;;;;;5040872;28;20072;-80
2022/05/12 01:40:33;;;;;;;4.78;1.10;;;10.40;99.90;;;;;;5010296;28;20069;-80
2022/05/12 01:42:59;;;;;;;5.97;1.17;;;10.80;99.90;;;;;;5041036;28;20068;-80
2022/05/12 01:45:26;;;;;;;4.22;0.80;;;10.20;99.90;;;;;;5008860;28;20183;-80
2022/05/12 01:47:52;;;;;;;6.40;0.98;;;10.50;99.90;;;;;;5041082;28;20052;-80
2022/05/12 01:50:18;;;;;;;5.07;1.13;;;9.90;99.90;;;;;;5041119;28;20049;-79
2022/05/12 01:52:44;;;;;;;3.53;1.00;;;10.40;99.90;;;;;;5042313;28;20081;-79
2022/05/12 01:55:12;;;;;;;2.45;0.82;;;9.90;99.90;;;;;;5041740;28;20065;-79
2022/05/12 01:57:38;;;;;;;4.53;0.93;;;10.50;99.90;;;;;;5041744;28;20880;-79
2022/05/12 02:00:06;;;;;;;4.03;0.90;;;10.40;99.90;;;;;;5040672;28;20061;-79
2022/05/12 02:02:32;;;;;;;4.40;1.00;;;9.80;99.90;;;;;;5041499;28;20125;-79
2022/05/12 02:04:57;;;;;;;6.68;0.98;;;9.90;99.90;;;;;;5040227;28;20180;-79
2022/05/12 02:07:23;;;;;;;5.55;1.40;;;10.10;99.90;;;;;;5041690;28;20121;-79
2022/05/12 02:09:49;;;;;;;7.82;1.63;;;9.70;99.90;;;;;;5009912;28;20054;-79
2022/05/12 02:12:15;;;;;;;4.43;1.10;;;9.80;99.90;;;;;;5040819;28;20053;-80
2022/05/12 02:14:41;;;;;;;6.60;1.70;;;9.90;99.90;;;;;;5041264;28;20046;-79
2022/05/12 02:17:07;;;;;;;7.22;1.58;;;10.50;99.90;;;;;;5009075;28;20072;-80
2022/05/12 02:19:33;;;;;;;8.38;1.45;;;10.00;99.90;;;;;;5009026;28;20088;-79
2022/05/12 02:22:00;;;;;;;7.72;2.08;;;9.90;99.90;;;;;;5041241;28;20046;-79
2022/05/12 02:24:26;;;;;;;7.03;1.55;;;9.70;99.90;;;;;;5041181;28;20096;-79
2022/05/12 02:26:51;;;;;;;6.03;1.70;;;9.80;99.90;;;;;;5040192;28;20077;-80
2022/05/12 02:29:17;;;;;;;5.95;2.30;;;9.60;99.90;;;;;;5040964;28;20049;-80
2022/05/12 02:31:43;;;;;;;9.93;2.20;;;10.00;99.90;;;;;;5040395;28;20038;-79
2022/05/12 02:34:08;;;;;;;9.85;1.60;;;9.50;99.90;;;;;;5039564;28;20058;-79
2022/05/12 02:36:34;;;;;;;11.32;2.25;;;10.30;99.90;;;;;;5008653;28;20054;-79
2022/05/12 02:39:00;;;;;;;6.35;2.28;;;10.20;99.90;;;;;;5039681;28;20062;-80
2022/05/12 02:41:25;;;;;;;11.85;2.10;;;10.00;99.90;;;;;;5039836;28;20120;-80
2022/05/12 02:43:51;;;;;;;9.23;1.92;;;9.40;99.90;;;;;;5040098;28;20057;-79
2022/05/12 02:46:17;;;;;;;11.50;2.80;;;9.80;99.90;;;;;;5008340;28;20112;-79
2022/05/12 02:48:45;;;;;;;6.57;2.17;;;9.40;99.90;;;;;;5039585;28;20057;-79
2022/05/12 02:51:13;;;;;;;9.23;2.58;;;9.50;99.90;;;;;;5007475;28;20382;-79
2022/05/12 02:53:39;;;;;;;8.38;2.58;;;10.10;99.90;;;;;;5006731;28;20456;-79
2022/05/12 02:56:07;;;;;;;8.43;2.20;;;9.40;99.90;;;;;;5039923;28;20128;-80
2022/05/12 02:58:33;;;;;;;10.32;2.80;;;9.90;99.90;;;;;;5040345;28;20049;-79
2022/05/12 03:01:00;;;;;;;11.32;2.20;;;9.90;99.90;;;;;;5038439;28;20136;-79
2022/05/12 03:03:27;;;;;;;11.65;2.85;;;9.40;99.90;;;;;;5009182;28;20046;-79
2022/05/12 03:05:54;;;;;;;11.40;2.35;;;9.60;99.90;;;;;;5039225;28;20112;-79
2022/05/12 03:08:20;;;;;;;14.95;3.15;;;9.40;99.90;;;;;;5040062;28;20042;-79
2022/05/12 03:10:49;;;;;;;10.35;2.85;;;9.40;99.90;;;;;;5022522;28;20088;-80
2022/05/12 03:13:14;;;;;;;9.75;2.63;;;9.30;99.90;;;;;;5040506;28;20124;-79
2022/05/12 03:15:40;;;;;;;16.05;3.70;;;9.30;99.90;;;;;;5006742;28;20128;-79
2022/05/12 03:18:06;;;;;;;10.65;3.45;;;9.80;99.90;;;;;;5008532;28;20073;-79
2022/05/12 03:20:32;;;;;;;9.70;3.03;;;9.30;99.90;;;;;;5039880;28;20104;-79
2022/05/12 03:22:58;;;;;;;14.02;3.25;;;9.30;99.90;;;;;;5038657;28;20038;-79
2022/05/12 03:25:24;;;;;;;12.15;3.22;;;9.90;99.90;;;;;;5039936;28;20049;-79
2022/05/12 03:27:50;;;;;;;11.82;3.13;;;9.20;99.90;;;;;;5039371;28;20053;-79
2022/05/12 03:30:19;;;;;;;14.43;3.30;;;9.40;99.90;;;;;;5006991;28;20103;-79
2022/05/12 03:32:45;;;;;;;15.75;3.63;;;9.20;99.90;;;;;;5039495;28;20069;-79
2022/05/12 03:35:11;;;;;;;15.80;4.15;;;9.30;99.90;;;;;;5006664;28;20050;-79
2022/05/12 03:37:38;;;;;;;17.92;4.10;;;9.30;99.90;;;;;;5039033;28;20093;-80
2022/05/12 03:40:06;;;;;;;16.10;4.13;;;9.10;99.90;;;;;;5038506;28;20128;-80
2022/05/12 03:42:31;;;;;;;17.30;4.30;;;9.20;99.90;;;;;;5007957;28;20056;-79
2022/05/12 03:44:59;;;;;;;14.30;4.18;;;9.10;99.90;;;;;;5006007;28;20050;-79
2022/05/12 03:47:30;;;;;;;19.58;4.35;;;9.50;99.90;;;;;;5022882;28;20046;-79
2022/05/12 03:50:02;;;;;;;14.45;4.85;;;9.30;99.90;;;;;;5037793;28;20405;-79
2022/05/12 03:52:29;;;;;;;11.93;4.15;;;9.30;99.90;;;;;;5006822;28;20065;-80
2022/05/12 03:54:54;;;;;;;15.65;4.40;;;9.30;99.90;;;;;;5038742;28;20096;-80
2022/05/12 03:57:22;;;;;;;11.80;4.38;;;9.60;99.90;;;;;;5021951;28;20046;-81
2022/05/12 03:59:48;;;;;;;14.18;4.55;;;9.20;99.90;;;;;;5021362;28;20061;-80
2022/05/12 04:02:16;;;;;;;17.48;4.80;;;9.50;99.90;;;;;;5038794;28;20354;-80
2022/05/12 04:04:46;;;;;;;16.33;4.82;;;9.10;99.90;;;;;;5022061;28;20100;-80
2022/05/12 04:07:13;;;;;;;21.20;4.78;;;9.10;99.90;;;;;;5006098;28;20042;-80
2022/05/12 04:09:39;;;;;;;16.08;5.10;;;9.20;99.90;;;;;;5038837;28;20065;-80
2022/05/12 04:12:09;;;;;;;14.40;5.22;;;9.20;99.90;;;;;;5006185;28;20046;-81
2022/05/12 04:14:35;;;;;;;13.48;5.15;;;9.10;99.90;;;;;;5006005;28;20069;-81
2022/05/12 04:17:01;;;;;;;16.35;5.57;;;9.20;99.90;;;;;;5006797;28;20049;-80
2022/05/12 04:19:28;;;;;;;17.52;4.95;;;9.20;99.90;;;;;;5039161;28;20053;-80
2022/05/12 04:21:54;;;;;;;10.00;4.88;;;9.70;99.90;;;;;;5038990;28;20054;-81
2022/05/12 04:24:20;;;;;;;17.88;6.07;;;9.20;99.90;;;;;;5039617;28;20073;-81
2022/05/12 04:26:46;;;;;;;14.68;4.90;;;9.20;99.90;;;;;;5006581;28;20053;-81
2022/05/12 04:29:13;;;;;;;15.55;5.20;;;9.60;99.90;;;;;;5010126;28;20045;-80
2022/05/12 04:31:39;;;;;;;19.85;5.55;;;9.30;99.90;;;;;;5024535;28;20045;-81
2022/05/12 04:36:49;;;;;;;21.20;5.72;;;9.60;99.90;;;;;;5024605;28;20059;-80
2022/05/12 04:39:16;;;;;;;16.67;5.10;;;9.60;99.90;;;;;;5026747;28;20049;-80
2022/05/12 04:41:41;;;;;;;13.18;5.22;;;9.80;99.90;;;;;;5025157;28;20045;-80
2022/05/12 04:44:07;;;;;;;14.80;4.60;;;9.90;99.90;;;;;;5026690;28;20052;-80
2022/05/12 04:46:34;;;;;;;14.38;4.90;;;9.80;99.90;;;;;;5024012;28;20048;-80
2022/05/12 04:49:02;;;;;;;16.50;5.32;;;9.70;99.90;;;;;;5025001;28;20057;-80
2022/05/12 04:51:29;;;;;;;17.63;5.40;;;9.80;99.90;;;;;;5025738;28;20060;-80
2022/05/12 04:53:55;;;;;;;15.80;5.80;;;9.80;99.90;;;;;;5023885;28;20536;-80
2022/05/12 04:56:20;;;;;;;14.65;5.50;;;9.90;99.90;;;;;;5023377;28;20089;-80
2022/05/12 04:58:46;;;;;;;14.52;5.20;;;9.90;99.90;;;;;;5006562;28;20053;-80
2022/05/12 05:01:12;;;;;;;15.57;5.50;;;9.90;99.90;;;;;;5004402;28;20046;-81
2022/05/12 05:03:38;;;;;;;19.10;5.57;;;10.00;99.90;;;;;;5010708;28;20058;-80
2022/05/12 05:06:04;;;;;;;14.30;5.63;;;10.30;99.90;;;;;;5041400;28;20546;-81
2022/05/12 05:08:30;;;;;;;20.50;5.30;;;10.00;99.90;;;;;;5042011;28;20061;-80
2022/05/12 05:10:56;;;;;;;17.42;5.32;;;10.10;99.90;;;;;;5041365;28;20081;-80
2022/05/12 05:13:22;;;;;;;16.88;5.18;;;10.20;99.90;;;;;;5042577;28;20050;-80
2022/05/12 05:15:50;;;;;;;15.38;4.90;;;10.20;99.90;;;;;;5040457;28;20104;-80
2022/05/12 05:18:17;;;;;;;10.63;5.20;;;10.50;99.90;;;;;;5042432;28;20089;-81
2022/05/12 05:20:44;;;;;;;15.23;5.50;;;10.40;99.90;;;;;;5010625;28;20366;-81
2022/05/12 05:23:11;;;;;;;19.90;6.32;;;10.40;99.90;;;;;;5009772;28;20132;-81
2022/05/12 05:25:38;;;;;;;13.00;4.97;;;10.70;99.90;;;;;;5010576;28;20046;-81
2022/05/12 05:28:05;;;;;;;12.23;4.95;;;10.90;99.90;;;;;;5010187;28;20464;-81
2022/05/12 05:30:33;;;;;;;16.65;5.05;;;10.70;99.90;;;;;;5040294;28;20116;-81
2022/05/12 05:32:58;;;;;;;15.65;4.97;;;11.00;99.90;;;;;;5041406;28;20129;-80
2022/05/12 05:35:24;;;;;;;13.07;4.95;;;10.80;99.90;;;;;;5009549;28;20132;-81
2022/05/12 05:37:52;;;;;;;14.70;5.22;;;10.90;99.90;;;;;;5010007;28;20777;-81
2022/05/12 05:40:21;;;;;;;13.55;4.70;;;11.00;99.90;;;;;;5008469;28;20056;-80
2022/05/12 05:42:48;;;;;;;15.77;4.70;;;11.30;99.90;;;;;;5009393;28;20116;-81
2022/05/12 05:45:17;;;;;;;19.48;5.00;;;11.20;99.90;;;;;;5041308;28;20088;-80
2022/05/12 05:47:47;;;;;;;17.35;4.70;;;11.40;99.90;;;;;;5042085;28;20053;-81
2022/05/12 05:50:19;;;;;;;16.75;4.40;;;11.40;99.90;;;;;;5040962;28;20068;-81
2022/05/12 05:55:29;;;;;;;12.55;3.80;;;11.60;99.90;;;;;;5041793;28;20132;-81
2022/05/12 05:57:58;;;;;;;10.88;3.88;;;11.70;99.90;;;;;;5008975;28;20130;-81
2022/05/12 06:00:25;;;;;;;11.25;3.67;;;11.80;99.90;;;;;;5009601;28;20045;-81
2022/05/12 06:02:51;;;;;;;16.48;4.28;;;11.90;99.90;;;;;;5041291;28;20062;-80
2022/05/12 06:05:17;;;;;;;17.27;4.28;;;12.00;99.90;;;;;;5009510;28;20127;-80
2022/05/12 06:07:44;;;;;;;13.77;4.30;;;12.10;99.90;;;;;;5041163;28;20088;-80
2022/05/12 06:10:10;;;;;;;9.93;4.45;;;12.20;99.90;;;;;;5008533;28;20239;-81
2022/05/12 06:12:37;;;;;;;17.83;3.53;;;12.20;99.90;;;;;;5008702;28;20126;-80
2022/05/12 06:15:04;;;;;;;12.48;3.10;;;12.30;99.90;;;;;;5040742;28;20057;-80
2022/05/12 06:17:30;;;;;;;12.07;3.85;;;12.40;99.90;;;;;;5009004;28;20038;-81
2022/05/12 06:19:56;;;;;;;16.13;3.65;;;12.50;99.90;;;;;;5009270;28;20152;-80
2022/05/12 06:22:22;;;;;;;12.35;3.13;;;12.60;99.90;;;;;;5041520;28;20054;-81
2022/05/12 06:24:49;;;;;;;12.70;3.33;;;12.70;99.90;;;;;;5040020;28;20103;-80
2022/05/12 06:27:16;;;;;;;16.60;3.30;;;12.70;99.90;;;;;;5041291;28;20532;-81
2022/05/12 06:29:44;;;;;;;11.57;3.00;;;12.80;99.90;;;;;;5015394;28;20036;-80
2022/05/12 06:32:10;;;;;;;15.07;2.90;;;12.90;99.90;;;;;;5027526;28;20712;-81
2022/05/12 06:34:36;;;;;;;12.20;2.47;;;13.00;99.90;;;;;;5022817;28;20056;-79
2022/05/12 06:37:04;;;;;;;11.93;2.55;;;13.10;99.90;;;;;;5030504;28;20049;-80
2022/05/12 06:39:30;;;;;;;8.02;2.10;;;13.10;99.90;;;;;;5026801;28;20085;-80
2022/05/12 06:41:56;;;;;;;11.05;2.10;;;13.30;99.90;;;;;;5026488;28;20051;-80
2022/05/12 06:44:22;;;;;;;11.85;3.08;;;13.40;99.90;;;;;;5026418;28;20049;-80
2022/05/12 06:46:48;;;;;;;10.27;2.70;;;13.50;99.90;;;;;;5024630;28;20047;-79
2022/05/12 06:49:14;;;;;;;9.57;2.33;;;13.70;99.90;;;;;;5026797;28;20049;-80
2022/05/12 06:51:40;;;;;;;13.50;2.10;;;13.70;99.90;;;;;;5028533;28;20057;-79
2022/05/12 06:54:05;;;;;;;11.05;1.98;;;13.70;99.90;;;;;;5025662;28;20073;-80
2022/05/12 06:56:31;;;;;;;5.05;1.77;;;13.80;99.90;;;;;;5022829;28;20045;-80
2022/05/12 06:58:57;;;;;;;9.70;2.13;;;13.80;99.90;;;;;;5049042;28;20050;-80
2022/05/12 07:01:24;;;;;;;10.07;2.10;;;13.90;99.90;;;;;;5025018;28;20119;-80
2022/05/12 07:03:50;;;;;;;7.05;1.85;;;14.00;99.90;;;;;;5026401;28;20053;-80
2022/05/12 07:06:17;;;;;;;13.55;2.25;;;14.10;99.90;;;;;;5025955;28;20473;-80
2022/05/12 07:08:43;;;;;;;10.45;1.73;;;14.10;99.90;;;;;;5027551;28;20489;-80
2022/05/12 07:11:10;;;;;;;7.10;1.40;;;14.20;99.90;;;;;;5024047;28;20412;-80
2022/05/12 07:13:36;;;;;;;10.02;1.80;;;14.30;99.90;;;;;;5027039;28;20053;-80
2022/05/12 07:16:03;;;;;;;9.77;1.90;;;14.30;99.90;;;;;;5024234;28;20115;-79
2022/05/12 07:18:30;;;;;;;13.25;2.40;;;14.30;99.90;;;;;;5027069;28;20164;-79
2022/05/12 07:26:36;;;;;;;8.80;1.67;;;14.50;99.90;;;;;;5026824;28;20482;-79
2022/05/12 07:29:04;;;;;;;8.25;2.08;;;14.60;99.90;;;;;;5023451;28;20052;-79
2022/05/12 07:31:30;;;;;;;10.25;1.58;;;14.70;99.90;;;;;;5024187;28;20111;-79
2022/05/12 07:33:57;;;;;;;8.63;1.80;;;14.80;99.90;;;;;;5025064;28;20382;-80
2022/05/12 07:36:26;;;;;;;8.75;1.98;;;14.90;99.90;;;;;;5048289;28;20065;-79
2022/05/12 07:38:55;;;;;;;10.43;2.15;;;15.00;99.90;;;;;;5009070;28;20045;-79
2022/05/12 07:41:21;;;;;;;6.82;1.45;;;15.10;99.90;;;;;;5059037;28;20049;-79
2022/05/12 07:43:47;;;;;;;7.28;1.42;;;15.20;99.90;;;;;;5024330;28;20042;-79
2022/05/12 07:46:16;;;;;;;6.80;1.65;;;15.40;99.90;;;;;;5024999;28;20560;-79
2022/05/12 07:48:42;;;;;;;11.05;1.75;;;15.50;99.90;;;;;;5056585;28;20052;-79
2022/05/12 07:51:08;;;;;;;10.55;1.70;;;15.60;99.90;;;;;;5049360;28;20045;-79
2022/05/12 07:53:34;;;;;;;8.98;1.65;;;15.60;99.90;;;;;;5052857;28;20080;-79
2022/05/12 07:56:01;;;;;;;9.45;2.03;;;15.70;99.90;;;;;;5023279;28;20132;-79
2022/05/12 07:58:26;;;;;;;9.57;1.60;;;15.70;99.90;;;;;;5052898;28;20045;-79
2022/05/12 08:00:53;;;;;;;7.50;1.42;;;15.80;99.90;;;;;;5022977;28;20037;-79
2022/05/12 08:03:20;;;;;;;10.27;1.77;;;15.80;99.90;;;;;;5007429;28;20049;-79
2022/05/12 08:05:46;;;;;;;7.80;1.40;;;15.80;99.90;;;;;;5021952;28;20041;-79
2022/05/12 08:08:12;;;;;;;14.77;2.03;;;15.80;99.90;;;;;;5047810;28;20088;-79
2022/05/12 08:10:38;;;;;;;11.27;2.03;;;15.80;99.90;;;;;;5008228;28;20048;-76
2022/05/12 08:13:04;;;;;;;12.80;1.63;;;15.80;99.90;;;;;;5044665;28;20132;-77
2022/05/12 08:15:31;;;;;;;8.30;1.50;;;15.90;99.90;;;;;;5022975;28;20529;-77
2022/05/12 08:17:57;;;;;;;10.75;1.58;;;16.00;99.90;;;;;;5023233;28;20041;-77
2022/05/12 08:20:24;;;;;;;6.47;1.35;;;16.10;99.90;;;;;;5046082;28;20037;-78
2022/05/12 08:22:50;;;;;;;12.45;2.05;;;16.20;99.90;;;;;;5023459;28;20069;-77
2022/05/12 08:25:16;;;;;;;7.60;1.58;;;16.40;99.90;;;;;;5023498;28;20077;-78
2022/05/12 08:27:42;;;;;;;5.47;1.17;;;16.40;99.90;;;;;;5044832;28;20080;-78
2022/05/12 08:30:11;;;;;;;9.05;1.45;;;16.40;99.90;;;;;;5044545;28;20111;-79
2022/05/12 08:32:37;;;;;;;11.73;1.52;;;16.50;99.90;;;;;;5022700;28;20103;-78
2022/05/12 08:35:04;;;;;;;7.32;1.48;;;16.60;99.90;;;;;;5023743;28;20049;-78
2022/05/12 08:37:30;;;;;;;10.15;1.60;;;16.60;99.90;;;;;;5050939;28;20045;-78
2022/05/12 08:39:56;;;;;;;7.75;1.40;;;16.50;99.90;;;;;;5026640;28;20049;-78
2022/05/12 08:42:41;;;;;;;9.20;1.23;;;16.40;99.90;;;;;;5011813;28;20073;-78
2022/05/12 08:45:11;;;;;;;6.47;1.17;;;16.50;99.90;;;;;;5050059;28;20053;-79
2022/05/12 08:47:43;;;;;;;6.68;1.25;;;16.40;99.90;;;;;;5046822;28;20072;-77
2022/05/12 08:50:16;;;;;;;6.47;1.42;;;16.40;99.90;;;;;;5024178;28;20048;-77
2022/05/12 08:52:48;;;;;;;8.00;1.38;;;16.50;99.90;;;;;;5024581;28;20038;-77
2022/05/12 08:55:25;;;;;;;9.23;1.83;;;16.70;99.90;;;;;;5027591;28;20103;-78
2022/05/12 08:57:57;;;;;;;9.40;1.60;;;16.80;99.90;;;;;;5023724;28;20473;-78
2022/05/12 09:00:25;;;;;;;5.87;0.97;;;17.00;99.90;;;;;;5049688;28;20497;-78
2022/05/12 09:02:57;;;;;;;11.00;1.42;;;17.10;99.90;;;;;;5052452;28;20167;-77
2022/05/12 09:05:31;;;;;;;7.97;1.23;;;17.20;99.90;;;;;;5025863;28;20423;-78
2022/05/12 09:08:15;;;;;;;8.38;1.55;;;17.20;99.90;;;;;;5027191;28;20049;-78
2022/05/12 09:10:59;;;;;;;10.60;1.50;;;17.30;99.90;;;;;;5026877;28;20067;-78
2022/05/12 09:13:40;;;;;;;9.80;1.48;;;17.40;99.90;;;;;;5050413;28;20049;-78
2022/05/12 09:16:19;;;;;;;14.13;1.75;;;17.50;99.90;;;;;;5026418;28;20045;-78
2022/05/12 09:18:45;;;;;;;6.20;1.45;;;17.50;99.90;;;;;;5025508;28;20481;-78
2022/05/12 09:21:15;;;;;;;5.80;1.38;;;17.30;99.90;;;;;;5052474;28;20071;-78
2022/05/12 09:23:40;;;;;;;9.38;1.17;;;17.00;99.90;;;;;;5027945;28;20053;-78
2022/05/12 09:26:29;;;;;;;8.13;1.25;;;17.10;99.90;;;;;;5028934;28;20049;-78
2022/05/12 09:29:22;;;;;;;5.30;1.08;;;17.10;99.90;;;;;;5024923;28;20107;-78
2022/05/12 09:31:52;;;;;;;7.32;1.30;;;17.10;99.90;;;;;;5024793;28;20053;-77
2022/05/12 09:34:24;;;;;;;7.68;1.40;;;17.20;99.90;;;;;;5026182;28;20127;-77
2022/05/12 09:36:50;;;;;;;6.28;1.30;;;17.40;99.90;;;;;;5026191;28;20064;-77
2022/05/12 09:39:39;;;;;;;9.07;1.00;;;17.60;99.90;;;;;;5008686;28;20401;-78
2022/05/12 09:42:08;;;;;;;8.45;1.10;;;17.70;99.90;;;;;;5044614;28;20212;-78
2022/05/12 09:44:35;;;;;;;6.65;1.00;;;17.90;99.90;;;;;;5025942;28;20049;-78
2022/05/12 09:47:07;;;;;;;11.55;1.27;;;18.10;99.90;;;;;;5047294;28;20493;-78
2022/05/12 09:49:38;;;;;;;6.72;1.00;;;18.30;99.90;;;;;;5050043;28;20041;-78
2022/05/12 09:52:27;;;;;;;8.70;1.30;;;18.50;99.90;;;;;;5008695;28;20104;-78
2022/05/12 09:55:11;;;;;;;8.27;1.25;;;18.60;99.90;;;;;;5006975;28;20092;-78
2022/05/12 09:57:46;;;;;;;8.32;1.30;;;18.70;99.90;;;;;;5007817;28;20068;-78
2022/05/12 10:00:30;;;;;;;5.93;1.00;;;18.70;99.90;;;;;;5021659;28;20041;-78
2022/05/12 10:08:43;;;;;;;6.57;1.17;;;18.50;99.90;;;;;;5022749;28;20579;-78
2022/05/12 10:11:12;;;;;;;5.07;1.00;;;18.20;99.90;;;;;;5024510;28;20699;-78
2022/05/12 10:13:42;;;;;;;5.97;1.20;;;18.20;99.90;;;;;;5026474;28;20049;-77
2022/05/12 10:16:09;;;;;;;10.75;1.10;;;18.40;99.90;;;;;;5023997;28;20049;-78
2022/05/12 10:18:40;;;;;;;5.78;0.90;;;18.40;99.90;;;;;;5024993;28;20444;-78
2022/05/12 10:21:13;;;;;;;7.28;1.25;;;18.30;99.90;;;;;;5026255;28;20064;-79
2022/05/12 10:24:06;;;;;;;6.60;0.98;;;18.30;99.90;;;;;;5026966;28;20053;-79
2022/05/12 10:26:43;;;;;;;6.80;1.48;;;18.20;99.90;;;;;;5026437;28;20060;-78
2022/05/12 10:29:50;;;;;;;6.25;1.05;;;18.10;99.90;;;;;;5025348;28;20049;-80
2022/05/12 10:32:44;;;;;;;6.07;0.88;;;18.20;99.90;;;;;;5019159;28;20076;-80
2022/05/12 10:36:22;;;;;;;8.90;1.27;;;18.40;99.90;;;;;;5086779;27;19917;-76
2022/05/12 10:39:06;;;;;;;5.18;1.25;;;18.50;99.90;;;;;;5082124;28;20058;-77
2022/05/12 10:41:50;;;;;;;5.85;1.00;;;18.50;99.90;;;;;;5083186;28;20424;-77
2022/05/12 10:44:20;;;;;;;8.70;1.40;;;18.60;99.90;;;;;;5083626;28;20040;-77
2022/05/12 10:46:53;;;;;;;7.18;1.20;;;18.80;99.90;;;;;;5080913;28;20067;-76
2022/05/12 10:49:21;;;;;;;7.20;0.95;;;19.00;99.90;;;;;;5066729;28;20205;-76
2022/05/12 10:52:12;;;;;;;14.27;1.38;;;19.20;99.90;;;;;;5081816;28;20396;-76
2022/05/12 10:54:50;;;;;;;6.55;0.93;;;19.30;99.90;;;;;;5083028;28;20492;-76
2022/05/12 10:57:41;;;;;;;11.10;1.70;;;19.50;99.90;;;;;;5082844;28;20048;-76
2022/05/12 11:00:22;;;;;;;5.97;1.30;;;19.40;99.90;;;;;;5081742;28;20048;-77
2022/05/12 11:02:53;;;;;;;8.60;1.10;;;19.10;99.90;;;;;;5084309;28;20040;-77
2022/05/12 11:05:23;;;;;;;6.90;1.02;;;19.00;99.90;;;;;;5084073;28;20102;-77
2022/05/12 11:07:55;;;;;;;4.78;1.08;;;19.10;99.90;;;;;;5081287;28;20048;-76
2022/05/12 11:10:26;;;;;;;7.53;1.00;;;19.10;99.90;;;;;;5082478;28;20056;-76
2022/05/12 11:12:56;;;;;;;11.18;1.20;;;19.10;99.90;;;;;;5080827;28;20051;-78
2022/05/12 11:15:26;;;;;;;4.90;1.10;;;19.20;99.90;;;;;;5081355;28;20376;-78
2022/05/12 11:18:00;;;;;;;6.03;1.13;;;19.10;99.90;;;;;;5081909;28;20056;-78
2022/05/12 11:20:32;;;;;;;5.10;0.88;;;19.10;99.90;;;;;;5081685;28;20491;-77
2022/05/12 11:22:59;;;;;;;10.77;1.00;;;18.90;99.90;;;;;;5082241;28;20041;-78
2022/05/12 11:25:48;;;;;;;5.18;0.80;;;18.80;99.90;;;;;;5065671;28;20132;-78
2022/05/12 11:31:21;;;;;;;5.75;0.75;;;18.90;99.90;;;;;;5081921;28;20516;-78
2022/05/12 11:33:53;;;;;;;9.50;0.82;;;19.00;99.90;;;;;;5064939;28;20130;-78
2022/05/12 11:36:18;;;;;;;7.18;1.00;;;19.20;99.90;;;;;;5081400;28;20517;-78
2022/05/12 11:38:49;;;;;;;6.85;0.90;;;19.20;99.90;;;;;;5082457;28;20109;-78
2022/05/12 11:41:37;;;;;;;5.70;0.93;;;19.00;99.90;;;;;;5080909;28;20048;-78
2022/05/12 11:44:26;;;;;;;4.80;1.02;;;18.90;99.90;;;;;;5081087;28;20041;-78
2022/05/12 11:47:06;;;;;;;4.93;0.70;;;18.60;99.90;;;;;;5072114;28;20071;-78
2022/05/12 11:49:56;;;;;;;5.70;0.95;;;18.60;99.90;;;;;;5051095;28;20144;-79
2022/05/12 11:52:42;;;;;;;8.05;1.23;;;18.70;99.90;;;;;;5068832;28;20070;-78
2022/05/12 11:55:23;;;;;;;8.65;1.40;;;18.90;99.90;;;;;;5067055;28;20155;-77
2022/05/12 11:57:59;;;;;;;4.80;0.98;;;19.20;99.90;;;;;;5067860;28;20048;-78
2022/05/12 12:00:53;;;;;;;4.38;1.05;;;19.20;99.90;;;;;;5067397;28;20059;-78
2022/05/12 12:03:45;;;;;;;13.43;0.90;;;18.90;99.90;;;;;;5067170;28;20114;-78
2022/05/12 12:06:39;;;;;;;6.75;1.00;;;18.70;99.90;;;;;;5051340;28;20044;-78
2022/05/12 12:09:40;;;;;;;6.82;1.20;;;18.60;99.90;;;;;;5049992;28;20047;-78
2022/05/12 12:12:10;;;;;;;5.15;0.90;;;18.80;99.90;;;;;;5067040;28;20056;-79
2022/05/12 12:14:43;;;;;;;6.35;1.50;;;19.00;99.90;;;;;;5066914;28;20047;-78
2022/05/12 12:17:10;;;;;;;;;;;19.20;99.90;;;;;;5067087;28;20057;-78
2022/05/12 12:19:49;;;;;;;7.22;1.13;;;19.00;99.90;;;;;;5069295;28;20283;-79
2022/05/12 12:22:26;;;;;;;5.57;1.10;;;18.70;99.90;;;;;;5067868;28;20041;-78
2022/05/12 12:25:02;;;;;;;3.50;0.88;;;18.60;99.90;;;;;;5050303;28;20048;-78
2022/05/12 12:27:46;;;;;;;8.05;1.17;;;18.70;99.90;;;;;;5069769;28;20040;-79
2022/05/12 12:30:46;;;;;;;8.65;1.30;;;19.00;99.90;;;;;;5067215;28;20153;-78
2022/05/12 12:33:18;;;;;;;5.95;1.10;;;19.20;99.90;;;;;;5050600;28;20159;-78
2022/05/12 12:36:08;;;;;;;8.18;0.98;;;19.30;99.90;;;;;;5066859;28;20091;-78
2022/05/12 12:38:46;;;;;;;4.78;0.95;;;19.20;99.90;;;;;;5066546;28;20036;-78
2022/05/12 12:41:46;;;;;;;8.18;1.00;;;18.90;99.90;;;;;;5066905;28;20090;-78
2022/05/12 12:44:21;;;;;;;4.25;0.90;;;18.70;99.90;;;;;;5067573;28;20491;-78
2022/05/12 12:46:55;;;;;;;5.95;0.88;;;18.40;99.90;;;;;;5066154;28;20048;-78
2022/05/12 12:49:31;;;;;;;4.63;1.00;;;18.30;99.90;;;;;;5066877;28;20040;-78
2022/05/12 12:52:04;;;;;;;3.80;0.75;;;18.10;99.90;;;;;;5049365;28;20041;-78
2022/05/12 12:57:21;;;;;;;5.63;1.27;;;18.20;99.90;;;;;;5067764;28;20041;-77
2022/05/12 12:59:48;;;;;;;4.60;0.90;;;18.50;99.90;;;;;;5064948;28;20056;-78
2022/05/12 13:02:40;;;;;;;7.10;1.08;;;18.60;99.90;;;;;;5068364;28;20040;-78
2022/05/12 13:05:08;;;;;;;6.70;1.45;;;18.60;99.90;;;;;;5065884;28;20037;-78
2022/05/12 13:07:36;;;;;;;12.05;2.78;;;18.60;99.90;;;;;;5066342;28;20048;-77
2022/05/12 13:10:10;;;;;;;8.18;1.75;;;18.90;99.90;;;;;;5066177;28;20102;-78
2022/05/12 13:12:36;;;;;;;10.23;1.08;;;19.00;99.90;;;;;;5066204;28;20048;-77
2022/05/12 13:15:14;;;;;;;10.57;1.40;;;18.90;99.90;;;;;;5065716;28;20462;-78
2022/05/12 13:17:48;;;;;;;10.75;1.17;;;18.70;99.90;;;;;;5067555;28;20120;-78
2022/05/12 13:20:17;;;;;;;11.32;2.45;;;18.60;99.90;;;;;;5065233;28;20147;-77
2022/05/12 13:22:49;;;;;;;8.45;1.75;;;18.60;99.90;;;;;;5066101;28;20056;-78
2022/05/12 13:25:20;;;;;;;5.32;0.90;;;18.70;99.90;;;;;;5065463;28;20064;-77